Terminal Aerodrome Forecast
Issued by NWS

Home | Current Version | Previous Version | Text Only | Print | Product List | Glossary Off
Versions: 1 2 3 4 5 6 7 8 9 10 11 12 13 14 15 16 17 18 19 20 21 22 23

000
FTUS43 KTOP 242200 AAA
TAFMHK
TAF AMD
KMHK 242208Z 2422/2518 20013G22KT P6SM VCTS BKN100CB
      TEMPO 2422/2423 5SM -TSRA BKN060CB
     FM250100 18010KT P6SM SCT100=

USA.gov is the U.S. government's official web portal to all federal, state and local government web resources and services.